sensor_id;sensor_type;location;lat;lon;timestamp;pressure;altitude;pressure_sealevel;temperature;humidity
74268;BME280;62638;51.362;12.472;2023-03-23T00:02:22;99261.75;;;13.07;62.01
74268;BME280;62638;51.362;12.472;2023-03-23T00:04:47;99255.06;;;12.88;63.07
74268;BME280;62638;51.362;12.472;2023-03-23T00:07:14;99250.91;;;13.00;62.21
74268;BME280;62638;51.362;12.472;2023-03-23T00:09:45;99244.59;;;12.93;62.58
74268;BME280;62638;51.362;12.472;2023-03-23T00:12:12;99235.69;;;12.93;62.77
74268;BME280;62638;51.362;12.472;2023-03-23T00:14:40;99239.84;;;12.95;62.65
74268;BME280;62638;51.362;12.472;2023-03-23T00:17:07;99243.38;;;12.96;62.71
74268;BME280;62638;51.362;12.472;2023-03-23T00:19:35;99242.53;;;12.95;62.54
74268;BME280;62638;51.362;12.472;2023-03-23T00:22:10;99233.16;;;13.14;61.71
74268;BME280;62638;51.362;12.472;2023-03-23T00:24:35;99236.13;;;13.19;61.92
74268;BME280;62638;51.362;12.472;2023-03-23T00:27:01;99231.81;;;13.10;62.45
74268;BME280;62638;51.362;12.472;2023-03-23T00:29:28;99226.06;;;12.98;62.41
74268;BME280;62638;51.362;12.472;2023-03-23T00:31:53;99230.31;;;12.93;62.69
74268;BME280;62638;51.362;12.472;2023-03-23T00:34:22;99226.53;;;13.02;62.12
74268;BME280;62638;51.362;12.472;2023-03-23T00:36:54;99221.78;;;13.04;61.87
74268;BME280;62638;51.362;12.472;2023-03-23T00:39:22;99222.63;;;13.04;61.71
74268;BME280;62638;51.362;12.472;2023-03-23T00:41:49;99221.72;;;12.97;62.36
74268;BME280;62638;51.362;12.472;2023-03-23T00:44:15;99224.28;;;12.91;62.35
74268;BME280;62638;51.362;12.472;2023-03-23T00:46:48;99212.06;;;12.88;62.16
74268;BME280;62638;51.362;12.472;2023-03-23T00:49:20;99214.75;;;12.88;62.58
74268;BME280;62638;51.362;12.472;2023-03-23T00:51:50;99210.13;;;12.97;62.27
74268;BME280;62638;51.362;12.472;2023-03-23T00:54:44;99208.44;;;12.96;62.13
74268;BME280;62638;51.362;12.472;2023-03-23T00:57:09;99200.94;;;12.91;62.17
74268;BME280;62638;51.362;12.472;2023-03-23T00:59:35;99204.00;;;12.88;62.39
74268;BME280;62638;51.362;12.472;2023-03-23T01:02:00;99206.22;;;12.85;62.49
74268;BME280;62638;51.362;12.472;2023-03-23T01:04:26;99209.47;;;12.80;62.62
74268;BME280;62638;51.362;12.472;2023-03-23T01:06:53;99206.03;;;12.71;63.13
74268;BME280;62638;51.362;12.472;2023-03-23T01:09:19;99209.63;;;12.64;63.73
74268;BME280;62638;51.362;12.472;2023-03-23T01:11:47;99204.72;;;12.67;63.72
74268;BME280;62638;51.362;12.472;2023-03-23T01:14:14;99201.91;;;12.61;63.92
74268;BME280;62638;51.362;12.472;2023-03-23T01:16:40;99194.53;;;12.63;63.47
74268;BME280;62638;51.362;12.472;2023-03-23T01:19:05;99192.75;;;12.55;64.38
74268;BME280;62638;51.362;12.472;2023-03-23T01:21:31;99190.34;;;12.60;63.53
74268;BME280;62638;51.362;12.472;2023-03-23T01:23:56;99190.44;;;12.67;63.20
74268;BME280;62638;51.362;12.472;2023-03-23T01:26:24;99196.00;;;12.65;63.21
74268;BME280;62638;51.362;12.472;2023-03-23T01:28:50;99192.38;;;12.58;63.89
74268;BME280;62638;51.362;12.472;2023-03-23T01:31:18;99189.59;;;12.66;63.51
74268;BME280;62638;51.362;12.472;2023-03-23T01:33:45;99187.38;;;12.55;63.59
74268;BME280;62638;51.362;12.472;2023-03-23T01:36:13;99177.09;;;12.59;63.34
74268;BME280;62638;51.362;12.472;2023-03-23T01:38:40;99169.13;;;12.65;63.19
74268;BME280;62638;51.362;12.472;2023-03-23T01:41:06;99180.53;;;12.67;62.98
74268;BME280;62638;51.362;12.472;2023-03-23T01:43:31;99175.25;;;12.59;63.25
74268;BME280;62638;51.362;12.472;2023-03-23T01:45:57;99178.69;;;12.68;62.54
74268;BME280;62638;51.362;12.472;2023-03-23T01:48:34;99177.41;;;12.64;62.31
74268;BME280;62638;51.362;12.472;2023-03-23T01:51:12;99174.03;;;12.62;62.24
74268;BME280;62638;51.362;12.472;2023-03-23T01:53:44;99176.34;;;12.65;62.35
74268;BME280;62638;51.362;12.472;2023-03-23T01:56:12;99182.06;;;12.47;63.35
74268;BME280;62638;51.362;12.472;2023-03-23T01:58:39;99178.16;;;12.35;64.00
74268;BME280;62638;51.362;12.472;2023-03-23T02:01:09;99170.00;;;12.28;63.80
74268;BME280;62638;51.362;12.472;2023-03-23T02:03:37;99163.41;;;12.31;63.65
74268;BME280;62638;51.362;12.472;2023-03-23T02:06:04;99171.94;;;12.35;63.11
74268;BME280;62638;51.362;12.472;2023-03-23T02:08:31;99172.47;;;12.30;63.29
74268;BME280;62638;51.362;12.472;2023-03-23T02:11:00;99162.13;;;12.27;63.70
74268;BME280;62638;51.362;12.472;2023-03-23T02:13:26;99167.94;;;12.31;63.87
74268;BME280;62638;51.362;12.472;2023-03-23T02:16:15;99153.78;;;12.22;64.56
74268;BME280;62638;51.362;12.472;2023-03-23T02:19:03;99146.88;;;12.42;63.43
74268;BME280;62638;51.362;12.472;2023-03-23T02:25:18;99146.22;;;12.40;63.17
74268;BME280;62638;51.362;12.472;2023-03-23T02:27:45;99140.84;;;12.40;63.45
74268;BME280;62638;51.362;12.472;2023-03-23T02:38:57;99135.84;;;12.37;63.82
74268;BME280;62638;51.362;12.472;2023-03-23T02:41:30;99126.34;;;12.49;63.03
74268;BME280;62638;51.362;12.472;2023-03-23T02:43:57;99125.78;;;12.54;62.71
74268;BME280;62638;51.362;12.472;2023-03-23T02:46:23;99130.78;;;12.42;63.55
74268;BME280;62638;51.362;12.472;2023-03-23T02:48:51;99127.81;;;12.52;63.08
74268;BME280;62638;51.362;12.472;2023-03-23T02:51:20;99135.41;;;12.48;63.28
74268;BME280;62638;51.362;12.472;2023-03-23T02:53:49;99124.56;;;12.56;62.89
74268;BME280;62638;51.362;12.472;2023-03-23T02:56:17;99123.94;;;12.54;62.76
74268;BME280;62638;51.362;12.472;2023-03-23T02:58:43;99108.91;;;12.60;62.63
74268;BME280;62638;51.362;12.472;2023-03-23T03:04:11;99113.53;;;12.51;63.21
74268;BME280;62638;51.362;12.472;2023-03-23T03:07:11;99100.19;;;12.43;63.13
74268;BME280;62638;51.362;12.472;2023-03-23T03:12:36;99104.84;;;12.49;63.17
74268;BME280;62638;51.362;12.472;2023-03-23T03:17:58;99101.69;;;12.60;62.85
74268;BME280;62638;51.362;12.472;2023-03-23T03:20:26;99098.16;;;12.60;62.88
74268;BME280;62638;51.362;12.472;2023-03-23T03:22:53;99090.03;;;12.68;62.75
74268;BME280;62638;51.362;12.472;2023-03-23T03:25:20;99094.28;;;12.77;61.89
74268;BME280;62638;51.362;12.472;2023-03-23T03:27:48;99088.72;;;12.79;61.91
74268;BME280;62638;51.362;12.472;2023-03-23T03:30:21;99091.22;;;12.80;62.04
74268;BME280;62638;51.362;12.472;2023-03-23T03:32:51;99088.72;;;12.79;62.35
74268;BME280;62638;51.362;12.472;2023-03-23T03:35:20;99085.66;;;12.82;62.41
74268;BME280;62638;51.362;12.472;2023-03-23T03:37:52;99086.94;;;12.86;61.82
74268;BME280;62638;51.362;12.472;2023-03-23T03:40:21;99079.25;;;12.83;62.08
74268;BME280;62638;51.362;12.472;2023-03-23T03:42:47;99094.94;;;12.79;62.49
74268;BME280;62638;51.362;12.472;2023-03-23T03:45:15;99101.03;;;12.88;61.90
74268;BME280;62638;51.362;12.472;2023-03-23T03:47:41;99104.38;;;12.90;62.15
74268;BME280;62638;51.362;12.472;2023-03-23T03:50:07;99089.63;;;12.86;62.38
74268;BME280;62638;51.362;12.472;2023-03-23T03:52:33;99099.66;;;12.92;62.05
74268;BME280;62638;51.362;12.472;2023-03-23T03:54:59;99093.09;;;12.94;61.90
74268;BME280;62638;51.362;12.472;2023-03-23T03:57:24;99114.09;;;13.05;61.69
74268;BME280;62638;51.362;12.472;2023-03-23T03:59:50;99098.81;;;13.06;61.15
74268;BME280;62638;51.362;12.472;2023-03-23T04:02:16;99103.66;;;13.10;61.28
74268;BME280;62638;51.362;12.472;2023-03-23T04:04:46;99097.78;;;13.07;61.52
74268;BME280;62638;51.362;12.472;2023-03-23T04:07:12;99089.72;;;13.07;61.43
74268;BME280;62638;51.362;12.472;2023-03-23T04:09:39;99093.44;;;13.06;61.29
74268;BME280;62638;51.362;12.472;2023-03-23T04:12:05;99099.09;;;13.11;61.55
74268;BME280;62638;51.362;12.472;2023-03-23T04:14:30;99103.16;;;13.07;61.14
74268;BME280;62638;51.362;12.472;2023-03-23T04:16:56;99115.03;;;13.12;61.00
74268;BME280;62638;51.362;12.472;2023-03-23T04:19:22;99108.16;;;13.10;61.54
74268;BME280;62638;51.362;12.472;2023-03-23T04:21:48;99118.00;;;13.17;61.12
74268;BME280;62638;51.362;12.472;2023-03-23T04:24:15;99123.25;;;13.26;60.73
74268;BME280;62638;51.362;12.472;2023-03-23T04:26:40;99125.31;;;13.24;61.48
74268;BME280;62638;51.362;12.472;2023-03-23T04:29:07;99110.59;;;13.20;61.26
74268;BME280;62638;51.362;12.472;2023-03-23T04:31:33;99107.41;;;13.16;61.06
74268;BME280;62638;51.362;12.472;2023-03-23T04:33:59;99103.91;;;13.15;61.12
74268;BME280;62638;51.362;12.472;2023-03-23T04:36:26;99111.31;;;13.13;61.57
74268;BME280;62638;51.362;12.472;2023-03-23T04:38:54;99118.81;;;13.18;61.29
74268;BME280;62638;51.362;12.472;2023-03-23T04:41:20;99111.50;;;13.12;62.05
74268;BME280;62638;51.362;12.472;2023-03-23T04:43:46;99117.22;;;13.09;61.74
74268;BME280;62638;51.362;12.472;2023-03-23T04:46:17;99113.84;;;13.15;61.83
74268;BME280;62638;51.362;12.472;2023-03-23T04:48:43;99121.69;;;13.16;62.02
74268;BME280;62638;51.362;12.472;2023-03-23T04:51:08;99116.59;;;13.07;62.19
74268;BME280;62638;51.362;12.472;2023-03-23T04:53:33;99117.53;;;13.14;62.16
74268;BME280;62638;51.362;12.472;2023-03-23T04:55:59;99123.75;;;13.14;62.26
74268;BME280;62638;51.362;12.472;2023-03-23T04:58:26;99113.63;;;13.16;62.28
74268;BME280;62638;51.362;12.472;2023-03-23T05:00:53;99106.88;;;13.06;62.66
74268;BME280;62638;51.362;12.472;2023-03-23T05:03:19;99125.47;;;13.07;62.89
74268;BME280;62638;51.362;12.472;2023-03-23T05:05:46;99126.25;;;13.01;62.96
74268;BME280;62638;51.362;12.472;2023-03-23T05:08:23;99123.09;;;12.98;63.45
74268;BME280;62638;51.362;12.472;2023-03-23T05:10:54;99132.56;;;12.94;63.77
74268;BME280;62638;51.362;12.472;2023-03-23T05:13:20;99142.19;;;13.03;63.48
74268;BME280;62638;51.362;12.472;2023-03-23T05:15:46;99138.66;;;13.02;63.40
74268;BME280;62638;51.362;12.472;2023-03-23T05:18:11;99132.81;;;12.99;64.19
74268;BME280;62638;51.362;12.472;2023-03-23T05:20:37;99126.97;;;12.95;64.26
74268;BME280;62638;51.362;12.472;2023-03-23T05:23:02;99126.06;;;12.88;64.69
74268;BME280;62638;51.362;12.472;2023-03-23T05:25:28;99121.53;;;12.89;64.75
74268;BME280;62638;51.362;12.472;2023-03-23T05:27:53;99123.00;;;12.91;64.46
74268;BME280;62638;51.362;12.472;2023-03-23T05:30:20;99128.84;;;12.80;65.79
74268;BME280;62638;51.362;12.472;2023-03-23T05:32:46;99124.88;;;12.76;65.76
74268;BME280;62638;51.362;12.472;2023-03-23T05:35:16;99134.13;;;12.73;66.08
74268;BME280;62638;51.362;12.472;2023-03-23T05:37:42;99128.28;;;12.70;66.23
74268;BME280;62638;51.362;12.472;2023-03-23T05:40:09;99127.66;;;12.68;67.70
74268;BME280;62638;51.362;12.472;2023-03-23T05:42:35;99127.91;;;12.58;69.56
74268;BME280;62638;51.362;12.472;2023-03-23T05:45:04;99128.00;;;12.50;69.98
74268;BME280;62638;51.362;12.472;2023-03-23T05:47:30;99124.75;;;12.40;70.43
74268;BME280;62638;51.362;12.472;2023-03-23T05:49:56;99136.56;;;12.31;70.79
74268;BME280;62638;51.362;12.472;2023-03-23T05:52:22;99135.75;;;12.31;71.79
74268;BME280;62638;51.362;12.472;2023-03-23T05:54:49;99136.28;;;12.26;72.61
74268;BME280;62638;51.362;12.472;2023-03-23T05:57:15;99129.66;;;12.37;71.73
74268;BME280;62638;51.362;12.472;2023-03-23T05:59:41;99135.03;;;12.37;71.58
74268;BME280;62638;51.362;12.472;2023-03-23T06:02:06;99131.97;;;12.40;70.34
74268;BME280;62638;51.362;12.472;2023-03-23T06:04:31;99144.66;;;12.46;71.44
74268;BME280;62638;51.362;12.472;2023-03-23T06:06:59;99148.06;;;12.40;71.51
74268;BME280;62638;51.362;12.472;2023-03-23T06:09:24;99150.66;;;12.33;73.20
74268;BME280;62638;51.362;12.472;2023-03-23T06:11:50;99160.66;;;12.24;73.42
74268;BME280;62638;51.362;12.472;2023-03-23T06:14:15;99160.97;;;12.21;73.66
74268;BME280;62638;51.362;12.472;2023-03-23T06:16:42;99169.94;;;12.14;75.09
74268;BME280;62638;51.362;12.472;2023-03-23T06:19:07;99173.91;;;12.03;76.17
74268;BME280;62638;51.362;12.472;2023-03-23T06:21:33;99172.94;;;11.96;76.55
74268;BME280;62638;51.362;12.472;2023-03-23T06:23:59;99173.66;;;11.90;78.43
74268;BME280;62638;51.362;12.472;2023-03-23T06:26:28;99180.94;;;11.81;80.62
74268;BME280;62638;51.362;12.472;2023-03-23T06:28:56;99191.47;;;11.83;80.96
74268;BME280;62638;51.362;12.472;2023-03-23T06:31:22;99186.47;;;11.80;81.67
74268;BME280;62638;51.362;12.472;2023-03-23T06:33:48;99176.44;;;11.74;80.29
74268;BME280;62638;51.362;12.472;2023-03-23T06:36:13;99180.28;;;11.71;82.50
74268;BME280;62638;51.362;12.472;2023-03-23T06:38:38;99181.47;;;11.77;80.55
74268;BME280;62638;51.362;12.472;2023-03-23T06:41:04;99172.41;;;11.70;82.35
74268;BME280;62638;51.362;12.472;2023-03-23T06:43:30;99169.97;;;11.60;84.08
74268;BME280;62638;51.362;12.472;2023-03-23T06:45:58;99169.25;;;11.66;82.86
74268;BME280;62638;51.362;12.472;2023-03-23T06:48:24;99176.81;;;11.63;84.35
74268;BME280;62638;51.362;12.472;2023-03-23T06:50:49;99179.34;;;11.64;83.68
74268;BME280;62638;51.362;12.472;2023-03-23T06:53:14;99188.41;;;11.63;85.36
74268;BME280;62638;51.362;12.472;2023-03-23T06:55:43;99194.75;;;11.62;85.82
74268;BME280;62638;51.362;12.472;2023-03-23T06:58:08;99202.44;;;11.73;84.89
74268;BME280;62638;51.362;12.472;2023-03-23T07:00:34;99194.16;;;11.83;82.81
74268;BME280;62638;51.362;12.472;2023-03-23T07:03:00;99198.66;;;11.91;82.28
74268;BME280;62638;51.362;12.472;2023-03-23T07:05:26;99204.59;;;12.01;80.99
74268;BME280;62638;51.362;12.472;2023-03-23T07:07:51;99201.69;;;12.10;80.58
74268;BME280;62638;51.362;12.472;2023-03-23T07:10:17;99207.81;;;12.19;78.11
74268;BME280;62638;51.362;12.472;2023-03-23T07:12:43;99210.59;;;12.25;79.85
74268;BME280;62638;51.362;12.472;2023-03-23T07:15:09;99210.75;;;12.32;77.79
74268;BME280;62638;51.362;12.472;2023-03-23T07:17:36;99212.22;;;12.35;78.75
74268;BME280;62638;51.362;12.472;2023-03-23T07:20:03;99220.78;;;12.38;76.35
74268;BME280;62638;51.362;12.472;2023-03-23T07:22:28;99217.50;;;12.43;77.04
74268;BME280;62638;51.362;12.472;2023-03-23T07:24:53;99217.25;;;12.38;78.40
74268;BME280;62638;51.362;12.472;2023-03-23T07:27:19;99223.09;;;12.41;78.04
74268;BME280;62638;51.362;12.472;2023-03-23T07:29:44;99221.41;;;12.40;78.69
74268;BME280;62638;51.362;12.472;2023-03-23T07:32:11;99217.06;;;12.39;78.26
74268;BME280;62638;51.362;12.472;2023-03-23T07:34:37;99220.19;;;12.43;78.61
74268;BME280;62638;51.362;12.472;2023-03-23T07:37:02;99215.03;;;12.41;79.25
74268;BME280;62638;51.362;12.472;2023-03-23T07:39:28;99217.88;;;12.40;80.10
74268;BME280;62638;51.362;12.472;2023-03-23T07:41:54;99218.34;;;12.43;79.01
74268;BME280;62638;51.362;12.472;2023-03-23T07:44:19;99222.88;;;12.43;79.54
74268;BME280;62638;51.362;12.472;2023-03-23T07:46:44;99222.00;;;12.50;79.50
74268;BME280;62638;51.362;12.472;2023-03-23T07:49:10;99222.53;;;12.46;78.73
74268;BME280;62638;51.362;12.472;2023-03-23T07:51:35;99233.75;;;12.49;78.41
74268;BME280;62638;51.362;12.472;2023-03-23T07:54:04;99229.22;;;12.50;79.37
74268;BME280;62638;51.362;12.472;2023-03-23T07:56:30;99224.69;;;12.50;78.95
74268;BME280;62638;51.362;12.472;2023-03-23T07:58:55;99227.66;;;12.55;79.62
74268;BME280;62638;51.362;12.472;2023-03-23T08:01:21;99210.59;;;12.48;79.39
74268;BME280;62638;51.362;12.472;2023-03-23T08:03:48;99235.28;;;12.66;78.51
74268;BME280;62638;51.362;12.472;2023-03-23T08:06:13;99220.84;;;12.67;77.77
74268;BME280;62638;51.362;12.472;2023-03-23T08:08:39;99228.63;;;12.77;78.14
74268;BME280;62638;51.362;12.472;2023-03-23T08:11:05;99223.53;;;12.82;78.13
74268;BME280;62638;51.362;12.472;2023-03-23T08:13:31;99234.75;;;12.86;78.06
74268;BME280;62638;51.362;12.472;2023-03-23T08:15:58;99225.94;;;12.77;79.64
74268;BME280;62638;51.362;12.472;2023-03-23T08:18:25;99216.66;;;12.65;79.83
74268;BME280;62638;51.362;12.472;2023-03-23T08:20:51;99225.47;;;12.73;80.25
74268;BME280;62638;51.362;12.472;2023-03-23T08:23:19;99224.63;;;12.73;81.09
74268;BME280;62638;51.362;12.472;2023-03-23T08:25:44;99233.22;;;12.68;80.28
74268;BME280;62638;51.362;12.472;2023-03-23T08:28:10;99210.81;;;12.61;80.93
74268;BME280;62638;51.362;12.472;2023-03-23T08:30:38;99224.72;;;12.65;82.07
74268;BME280;62638;51.362;12.472;2023-03-23T08:33:04;99222.03;;;12.65;81.67
74268;BME280;62638;51.362;12.472;2023-03-23T08:35:30;99223.69;;;12.66;83.49
74268;BME280;62638;51.362;12.472;2023-03-23T08:37:56;99217.47;;;12.65;83.22
74268;BME280;62638;51.362;12.472;2023-03-23T08:40:23;99213.41;;;12.69;82.57
74268;BME280;62638;51.362;12.472;2023-03-23T08:42:50;99225.28;;;12.75;82.15
74268;BME280;62638;51.362;12.472;2023-03-23T08:45:19;99214.00;;;12.80;82.09
74268;BME280;62638;51.362;12.472;2023-03-23T08:47:44;99225.66;;;12.87;82.09
74268;BME280;62638;51.362;12.472;2023-03-23T08:50:19;99227.38;;;13.02;83.31
74268;BME280;62638;51.362;12.472;2023-03-23T08:52:45;99242.78;;;13.23;81.65
74268;BME280;62638;51.362;12.472;2023-03-23T08:55:11;99226.38;;;13.33;80.68
74268;BME280;62638;51.362;12.472;2023-03-23T08:57:37;99213.91;;;13.46;79.03
74268;BME280;62638;51.362;12.472;2023-03-23T09:00:05;99219.16;;;13.69;78.41
74268;BME280;62638;51.362;12.472;2023-03-23T09:02:43;99215.78;;;13.82;76.06
74268;BME280;62638;51.362;12.472;2023-03-23T09:05:10;99222.09;;;13.89;75.67
74268;BME280;62638;51.362;12.472;2023-03-23T09:07:37;99227.16;;;13.98;76.09
74268;BME280;62638;51.362;12.472;2023-03-23T09:10:03;99204.28;;;14.09;73.29
74268;BME280;62638;51.362;12.472;2023-03-23T09:12:28;99201.22;;;14.12;74.15
74268;BME280;62638;51.362;12.472;2023-03-23T09:14:55;99213.66;;;14.13;73.28
74268;BME280;62638;51.362;12.472;2023-03-23T09:17:20;99194.44;;;14.37;73.74
74268;BME280;62638;51.362;12.472;2023-03-23T09:19:45;99200.63;;;14.59;71.97
74268;BME280;62638;51.362;12.472;2023-03-23T09:22:11;99192.63;;;15.00;71.83
74268;BME280;62638;51.362;12.472;2023-03-23T09:24:38;99193.97;;;15.17;70.45
74268;BME280;62638;51.362;12.472;2023-03-23T09:27:03;99193.81;;;15.25;69.71
74268;BME280;62638;51.362;12.472;2023-03-23T09:29:29;99209.13;;;15.18;68.83
74268;BME280;62638;51.362;12.472;2023-03-23T09:31:55;99213.63;;;15.11;68.83
74268;BME280;62638;51.362;12.472;2023-03-23T09:34:21;99210.19;;;15.24;67.87
74268;BME280;62638;51.362;12.472;2023-03-23T09:36:47;99215.22;;;15.33;69.89
74268;BME280;62638;51.362;12.472;2023-03-23T09:39:13;99209.03;;;15.39;68.60
74268;BME280;62638;51.362;12.472;2023-03-23T09:49:50;99214.72;;;14.89;67.18
74268;BME280;62638;51.362;12.472;2023-03-23T09:52:18;99225.00;;;15.00;67.02
74268;BME280;62638;51.362;12.472;2023-03-23T09:54:49;99221.34;;;15.14;66.99
74268;BME280;62638;51.362;12.472;2023-03-23T09:57:33;99218.41;;;15.43;66.27
74268;BME280;62638;51.362;12.472;2023-03-23T10:00:06;99220.59;;;15.27;66.23
74268;BME280;62638;51.362;12.472;2023-03-23T10:05:34;99228.91;;;15.32;65.63
74268;BME280;62638;51.362;12.472;2023-03-23T10:08:02;99231.22;;;15.35;65.33
74268;BME280;62638;51.362;12.472;2023-03-23T10:13:17;99217.06;;;15.26;64.68
74268;BME280;62638;51.362;12.472;2023-03-23T10:15:45;99229.72;;;15.32;64.96
74268;BME280;62638;51.362;12.472;2023-03-23T10:18:17;99220.34;;;15.22;65.71
74268;BME280;62638;51.362;12.472;2023-03-23T10:20:51;99217.66;;;15.22;64.67
74268;BME280;62638;51.362;12.472;2023-03-23T10:25:50;99215.41;;;15.32;63.95
74268;BME280;62638;51.362;12.472;2023-03-23T10:28:34;99215.88;;;15.42;64.06
74268;BME280;62638;51.362;12.472;2023-03-23T10:31:00;99214.44;;;15.46;63.33
74268;BME280;62638;51.362;12.472;2023-03-23T10:33:36;99218.88;;;15.54;62.42
74268;BME280;62638;51.362;12.472;2023-03-23T10:36:10;99219.56;;;15.69;61.87
74268;BME280;62638;51.362;12.472;2023-03-23T10:39:00;99209.44;;;15.84;61.63
74268;BME280;62638;51.362;12.472;2023-03-23T10:41:27;99218.13;;;15.79;61.49
74268;BME280;62638;51.362;12.472;2023-03-23T10:43:52;99222.53;;;15.87;60.67
74268;BME280;62638;51.362;12.472;2023-03-23T10:46:22;99214.25;;;15.95;61.67
74268;BME280;62638;51.362;12.472;2023-03-23T10:48:51;99223.19;;;16.02;60.99
74268;BME280;62638;51.362;12.472;2023-03-23T10:51:22;99225.09;;;16.08;61.44
74268;BME280;62638;51.362;12.472;2023-03-23T10:53:51;99234.53;;;15.71;60.90
74268;BME280;62638;51.362;12.472;2023-03-23T10:56:26;99217.75;;;15.82;60.75
74268;BME280;62638;51.362;12.472;2023-03-23T10:58:53;99219.16;;;15.72;57.99
74268;BME280;62638;51.362;12.472;2023-03-23T11:01:20;99224.97;;;15.69;59.78
74268;BME280;62638;51.362;12.472;2023-03-23T11:03:48;99220.38;;;15.63;59.32
74268;BME280;62638;51.362;12.472;2023-03-23T11:06:29;99221.25;;;15.70;59.80
74268;BME280;62638;51.362;12.472;2023-03-23T11:08:58;99228.56;;;15.82;59.84
74268;BME280;62638;51.362;12.472;2023-03-23T11:11:31;99231.22;;;15.76;60.13
74268;BME280;62638;51.362;12.472;2023-03-23T11:13:59;99223.16;;;15.82;58.50
74268;BME280;62638;51.362;12.472;2023-03-23T11:16:31;99229.78;;;15.80;58.93
74268;BME280;62638;51.362;12.472;2023-03-23T11:18:58;99236.44;;;15.84;59.05
74268;BME280;62638;51.362;12.472;2023-03-23T11:21:25;99236.47;;;15.97;58.41
74268;BME280;62638;51.362;12.472;2023-03-23T11:23:55;99229.25;;;16.04;57.68
74268;BME280;62638;51.362;12.472;2023-03-23T11:26:33;99244.38;;;16.05;57.33
74268;BME280;62638;51.362;12.472;2023-03-23T11:29:06;99250.22;;;16.02;56.99
74268;BME280;62638;51.362;12.472;2023-03-23T11:34:15;99252.25;;;15.87;56.01
74268;BME280;62638;51.362;12.472;2023-03-23T11:36:47;99242.91;;;15.89;56.90
74268;BME280;62638;51.362;12.472;2023-03-23T11:39:24;99246.81;;;15.74;57.32
74268;BME280;62638;51.362;12.472;2023-03-23T11:41:50;99255.06;;;15.66;58.18
74268;BME280;62638;51.362;12.472;2023-03-23T11:44:16;99248.78;;;15.52;58.11
74268;BME280;62638;51.362;12.472;2023-03-23T11:46:49;99247.13;;;15.58;58.99
74268;BME280;62638;51.362;12.472;2023-03-23T11:52:05;99263.44;;;15.77;58.44
74268;BME280;62638;51.362;12.472;2023-03-23T11:54:44;99271.28;;;15.66;57.67
74268;BME280;62638;51.362;12.472;2023-03-23T11:57:11;99262.69;;;15.56;57.89
74268;BME280;62638;51.362;12.472;2023-03-23T11:59:38;99253.41;;;15.65;57.29
74268;BME280;62638;51.362;12.472;2023-03-23T12:02:22;99257.59;;;15.74;57.34
74268;BME280;62638;51.362;12.472;2023-03-23T12:07:46;99255.56;;;15.89;57.16
74268;BME280;62638;51.362;12.472;2023-03-23T12:10:25;99251.28;;;16.08;56.52
74268;BME280;62638;51.362;12.472;2023-03-23T12:21:38;99243.56;;;15.98;57.86
74268;BME280;62638;51.362;12.472;2023-03-23T12:24:19;99248.22;;;16.30;57.23
74268;BME280;62638;51.362;12.472;2023-03-23T12:37:51;99230.75;;;16.53;58.07
74268;BME280;62638;51.362;12.472;2023-03-23T12:40:29;99224.53;;;16.46;56.67
74268;BME280;62638;51.362;12.472;2023-03-23T12:43:15;99209.75;;;16.28;58.27
74268;BME280;62638;51.362;12.472;2023-03-23T12:48:56;99185.00;;;16.97;56.63
74268;BME280;62638;51.362;12.472;2023-03-23T12:51:49;99181.06;;;17.00;54.91
74268;BME280;62638;51.362;12.472;2023-03-23T12:57:16;99180.44;;;16.98;54.22
74268;BME280;62638;51.362;12.472;2023-03-23T12:59:53;99198.25;;;17.89;52.74
74268;BME280;62638;51.362;12.472;2023-03-23T13:02:27;99195.56;;;17.83;51.53
74268;BME280;62638;51.362;12.472;2023-03-23T13:05:03;99204.50;;;17.32;53.14
74268;BME280;62638;51.362;12.472;2023-03-23T13:07:33;99219.09;;;17.24;53.33
74268;BME280;62638;51.362;12.472;2023-03-23T13:10:23;99211.03;;;16.52;53.80
74268;BME280;62638;51.362;12.472;2023-03-23T13:12:50;99215.97;;;16.35;54.40
74268;BME280;62638;51.362;12.472;2023-03-23T13:15:38;99213.09;;;16.44;53.24
74268;BME280;62638;51.362;12.472;2023-03-23T13:20:51;99184.63;;;16.34;52.70
74268;BME280;62638;51.362;12.472;2023-03-23T13:23:25;99198.31;;;16.33;53.82
74268;BME280;62638;51.362;12.472;2023-03-23T13:25:59;99221.63;;;16.34;52.61
74268;BME280;62638;51.362;12.472;2023-03-23T13:28:32;99218.25;;;16.32;52.42
74268;BME280;62638;51.362;12.472;2023-03-23T13:33:32;99218.69;;;16.35;52.65
74268;BME280;62638;51.362;12.472;2023-03-23T13:36:11;99206.00;;;16.23;52.49
74268;BME280;62638;51.362;12.472;2023-03-23T13:38:38;99204.53;;;16.20;53.67
74268;BME280;62638;51.362;12.472;2023-03-23T13:41:22;99212.19;;;16.04;53.14
74268;BME280;62638;51.362;12.472;2023-03-23T13:43:48;99214.88;;;15.97;54.02
74268;BME280;62638;51.362;12.472;2023-03-23T13:46:27;99207.78;;;15.83;55.03
74268;BME280;62638;51.362;12.472;2023-03-23T13:56:52;99204.78;;;15.58;56.55
74268;BME280;62638;51.362;12.472;2023-03-23T14:01:57;99207.53;;;15.71;56.44
74268;BME280;62638;51.362;12.472;2023-03-23T14:04:41;99222.44;;;15.61;56.62
74268;BME280;62638;51.362;12.472;2023-03-23T14:07:11;99217.44;;;15.58;57.33
74268;BME280;62638;51.362;12.472;2023-03-23T14:09:42;99212.66;;;15.53;58.00
74268;BME280;62638;51.362;12.472;2023-03-23T14:12:26;99197.66;;;15.44;57.93
74268;BME280;62638;51.362;12.472;2023-03-23T14:15:00;99211.94;;;15.44;58.30
74268;BME280;62638;51.362;12.472;2023-03-23T14:17:31;99223.84;;;15.50;57.92
74268;BME280;62638;51.362;12.472;2023-03-23T14:19:58;99218.06;;;15.53;57.96
74268;BME280;62638;51.362;12.472;2023-03-23T14:22:27;99219.09;;;15.59;57.88
74268;BME280;62638;51.362;12.472;2023-03-23T14:25:00;99209.97;;;15.60;57.73
74268;BME280;62638;51.362;12.472;2023-03-23T14:27:27;99212.91;;;15.65;58.85